createdAt,value
2022-08-25T00:00:00.951Z,2.0
2022-08-25T00:05:00.337Z,2.4
2022-08-25T00:10:00.308Z,3.7
2022-08-25T00:15:00.256Z,2.2
2022-08-25T00:20:00.325Z,2.0
2022-08-25T00:25:00.254Z,1.5
2022-08-25T00:30:00.333Z,3.3
2022-08-25T00:35:00.301Z,3.1
2022-08-25T00:40:00.491Z,2.5
2022-08-25T00:45:00.724Z,3.1
2022-08-25T00:50:00.347Z,2.5
2022-08-25T00:55:08.411Z,2.1
2022-08-25T01:00:00.298Z,3.4
2022-08-25T01:05:00.365Z,3.3
2022-08-25T01:10:00.270Z,2.2
2022-08-25T01:15:00.298Z,2.6
2022-08-25T01:20:00.297Z,2.7
2022-08-25T01:25:00.245Z,3.4
2022-08-25T01:30:00.304Z,3.2
2022-08-25T01:35:00.278Z,3.1
2022-08-25T01:40:00.472Z,3.6
2022-08-25T01:45:00.271Z,3.0
2022-08-25T01:50:00.327Z,2.3
2022-08-25T01:55:00.237Z,2.4
2022-08-25T02:00:00.365Z,2.3
2022-08-25T02:05:00.385Z,2.5
2022-08-25T02:10:03.661Z,0.3
2022-08-25T02:15:00.443Z,1.3
2022-08-25T02:20:00.310Z,0.9
2022-08-25T02:25:00.240Z,2.1
2022-08-25T02:30:00.289Z,2.3
2022-08-25T02:35:00.266Z,2.1
2022-08-25T02:40:00.514Z,1.9
2022-08-25T02:45:00.306Z,3.0
2022-08-25T02:50:00.306Z,1.9
2022-08-25T02:55:00.239Z,4.1
2022-08-25T03:00:00.322Z,2.9
2022-08-25T03:05:00.453Z,3.1
2022-08-25T03:10:00.286Z,4.5
2022-08-25T03:15:00.253Z,2.3
2022-08-25T03:20:00.304Z,2.2
2022-08-25T03:25:00.304Z,3.3
2022-08-25T03:30:00.369Z,5.1
2022-08-25T03:35:00.308Z,4.0
2022-08-25T03:40:00.496Z,5.6
2022-08-25T03:45:00.274Z,4.2
2022-08-25T03:50:00.354Z,4.5
2022-08-25T03:55:00.291Z,5.4
2022-08-25T04:00:00.325Z,4.3
2022-08-25T04:05:00.337Z,3.8
2022-08-25T04:10:00.357Z,4.3
2022-08-25T04:15:00.324Z,5.2
2022-08-25T04:20:00.384Z,5.1
2022-08-25T04:25:00.269Z,6.5
2022-08-25T04:30:00.397Z,4.0
2022-08-25T04:35:00.257Z,4.4
2022-08-25T04:40:00.640Z,5.8
2022-08-25T04:45:00.346Z,6.5
2022-08-25T04:50:00.330Z,4.4
2022-08-25T04:55:00.332Z,4.4
2022-08-25T05:00:00.355Z,3.8
2022-08-25T05:05:00.264Z,3.4
2022-08-25T05:10:00.311Z,5.2
2022-08-25T05:15:00.277Z,4.1
2022-08-25T05:20:00.306Z,5.0
2022-08-25T05:25:00.267Z,3.5
2022-08-25T05:30:00.350Z,5.9
2022-08-25T05:35:00.305Z,4.0
2022-08-25T05:40:00.537Z,3.2
2022-08-25T05:45:00.259Z,2.2
2022-08-25T05:50:00.309Z,6.2
2022-08-25T05:55:00.315Z,6.4
2022-08-25T06:00:00.308Z,5.7
2022-08-25T06:05:00.246Z,6.1
2022-08-25T06:10:00.318Z,6.8
2022-08-25T06:15:00.319Z,7.6
2022-08-25T06:20:00.837Z,7.9
2022-08-25T06:25:02.803Z,8.1
2022-08-25T06:30:00.414Z,9.8
2022-08-25T06:35:00.253Z,5.1
2022-08-25T06:40:00.539Z,8.6
2022-08-25T06:45:00.270Z,3.4
2022-08-25T06:50:00.359Z,6.9
2022-08-25T06:55:00.301Z,3.6
2022-08-25T07:00:00.381Z,4.4
2022-08-25T07:05:00.279Z,2.7
2022-08-25T07:10:00.342Z,4.3
2022-08-25T07:15:19.619Z,5.1
2022-08-25T07:20:00.684Z,4.5
2022-08-25T07:25:00.320Z,4.0
2022-08-25T07:30:01.214Z,6.3
2022-08-25T07:35:01.575Z,1.9
2022-08-25T07:40:00.528Z,3.2
2022-08-25T07:45:00.326Z,5.2
2022-08-25T07:50:00.311Z,4.7
2022-08-25T07:55:00.293Z,5.3
2022-08-25T08:00:00.376Z,2.5
2022-08-25T08:05:01.573Z,3.2
2022-08-25T08:10:33.104Z,4.3
2022-08-25T08:15:00.407Z,7.0
2022-08-25T08:20:00.377Z,8.7
2022-08-25T08:25:00.280Z,6.3
2022-08-25T08:30:00.366Z,3.4
2022-08-25T08:35:00.280Z,5.0
2022-08-25T08:40:03.606Z,6.0
2022-08-25T08:45:02.822Z,6.1
2022-08-25T08:50:00.465Z,6.5
2022-08-25T08:55:00.317Z,5.3
2022-08-25T09:00:00.361Z,4.2
2022-08-25T09:05:00.609Z,4.5
2022-08-25T09:10:00.323Z,5.8
2022-08-25T09:15:00.309Z,5.1
2022-08-25T09:20:00.321Z,6.4
2022-08-25T09:25:00.292Z,3.6
2022-08-25T09:30:00.432Z,5.7
2022-08-25T09:35:00.304Z,4.8
2022-08-25T09:40:00.614Z,5.8
2022-08-25T09:45:00.326Z,5.5
2022-08-25T09:50:00.419Z,6.0
2022-08-25T09:55:00.324Z,3.1
2022-08-25T10:00:01.743Z,6.3
2022-08-25T10:05:00.366Z,5.0
2022-08-25T10:10:00.420Z,5.1
2022-08-25T10:15:00.308Z,4.3
2022-08-25T10:20:03.783Z,4.3
2022-08-25T10:25:00.269Z,5.0
2022-08-25T10:30:03.046Z,5.7
2022-08-25T10:35:00.416Z,5.4
2022-08-25T10:40:00.450Z,5.6
2022-08-25T10:45:01.263Z,4.6
2022-08-25T10:50:02.782Z,4.9
2022-08-25T10:55:00.314Z,5.7
2022-08-25T11:00:00.342Z,5.2
2022-08-25T11:05:00.499Z,4.4
2022-08-25T11:10:00.304Z,3.4
2022-08-25T11:15:01.588Z,3.6
2022-08-25T11:20:00.379Z,2.9
2022-08-25T11:25:00.298Z,4.3
2022-08-25T11:30:00.611Z,5.4
2022-08-25T11:35:00.269Z,6.1
2022-08-25T11:40:00.590Z,2.9
2022-08-25T11:45:00.374Z,3.4
2022-08-25T11:50:00.311Z,2.8
2022-08-25T11:55:00.255Z,4.8
2022-08-25T12:00:00.357Z,9.7
2022-08-25T12:05:01.034Z,7.1
2022-08-25T12:10:00.324Z,4.4
2022-08-25T12:15:00.302Z,2.8
2022-08-25T12:20:00.331Z,4.9
2022-08-25T12:25:00.259Z,4.2
2022-08-25T12:30:00.697Z,7.8
2022-08-25T12:35:00.321Z,5.3
2022-08-25T12:40:00.471Z,5.1
2022-08-25T12:45:00.416Z,3.4
2022-08-25T12:50:00.798Z,3.6
2022-08-25T12:55:00.362Z,0.7
2022-08-25T13:00:00.574Z,2.0
2022-08-25T13:05:02.604Z,8.3
2022-08-25T13:10:00.329Z,5.1
2022-08-25T13:15:00.307Z,3.1
2022-08-25T13:20:03.086Z,2.0
2022-08-25T13:25:00.476Z,6.7
2022-08-25T13:30:04.279Z,4.4
2022-08-25T13:35:00.249Z,4.7
2022-08-25T13:40:04.732Z,7.7
2022-08-25T13:45:00.681Z,7.7
2022-08-25T13:50:00.527Z,10.4
2022-08-25T13:55:04.882Z,8.5
2022-08-25T14:00:01.137Z,7.1
2022-08-25T14:05:00.311Z,7.7
2022-08-25T14:10:00.860Z,5.1
2022-08-25T14:15:00.276Z,3.0
2022-08-25T14:20:00.340Z,3.5
2022-08-25T14:25:00.304Z,6.5
2022-08-25T14:30:00.551Z,8.3
2022-08-25T14:35:10.262Z,8.3
2022-08-25T14:40:00.612Z,5.9
2022-08-25T14:45:00.279Z,4.1
2022-08-25T14:50:00.430Z,2.1
2022-08-25T14:55:00.432Z,3.8
2022-08-25T15:00:00.346Z,8.8
2022-08-25T15:05:01.398Z,11.1
2022-08-25T15:10:00.310Z,8.7
2022-08-25T15:15:00.317Z,9.6
2022-08-25T15:20:00.329Z,11.2
2022-08-25T15:25:02.008Z,6.3
2022-08-25T15:30:00.324Z,4.1
2022-08-25T15:35:00.273Z,2.4
2022-08-25T15:40:00.414Z,4.7
2022-08-25T15:45:00.273Z,8.8
2022-08-25T15:50:00.367Z,7.6
2022-08-25T15:55:00.284Z,9.5
2022-08-25T16:00:00.348Z,4.8
2022-08-25T16:05:00.296Z,6.9
2022-08-25T16:10:00.333Z,8.7
2022-08-25T16:15:00.273Z,8.7
2022-08-25T16:20:00.322Z,5.1
2022-08-25T16:25:00.333Z,8.9
2022-08-25T16:30:00.330Z,6.8
2022-08-25T16:35:00.295Z,9.5
2022-08-25T16:40:00.598Z,7.0
2022-08-25T16:45:00.284Z,7.6
2022-08-25T16:50:00.419Z,4.7
2022-08-25T16:55:00.265Z,4.3
2022-08-25T17:00:00.647Z,6.0
2022-08-25T17:05:00.316Z,5.2
2022-08-25T17:10:00.640Z,5.9
2022-08-25T17:15:00.278Z,4.3
2022-08-25T17:20:04.936Z,4.3
2022-08-25T17:25:01.383Z,6.0
2022-08-25T17:30:00.554Z,4.5
2022-08-25T17:35:00.259Z,3.0
2022-08-25T17:40:03.682Z,4.4
2022-08-25T17:45:00.311Z,5.3
2022-08-25T17:50:00.691Z,3.4
2022-08-25T17:55:00.596Z,3.8
2022-08-25T18:00:01.271Z,3.7
2022-08-25T18:05:00.258Z,2.4
2022-08-25T18:10:00.333Z,2.6
2022-08-25T18:15:00.208Z,2.4
2022-08-25T18:20:00.301Z,0.3
2022-08-25T18:25:00.326Z,0.0
2022-08-25T18:30:03.362Z,1.4
2022-08-25T18:35:00.263Z,0.8
2022-08-25T18:40:00.511Z,0.5
2022-08-25T18:45:00.309Z,0.2
2022-08-25T18:50:04.768Z,0.6
2022-08-25T18:55:01.259Z,1.9
2022-08-25T19:00:00.346Z,1.4
2022-08-25T19:05:10.548Z,0.6
2022-08-25T19:10:01.032Z,0.4
2022-08-25T19:15:01.493Z,1.2
2022-08-25T19:20:01.671Z,0.1
2022-08-25T19:25:00.310Z,0.0
2022-08-25T19:30:00.229Z,0.0
2022-08-25T19:35:00.600Z,0.0
2022-08-25T19:40:00.541Z,0.0
2022-08-25T19:45:00.591Z,0.0
2022-08-25T19:50:00.382Z,0.0
2022-08-25T19:55:00.928Z,0.0
2022-08-25T20:00:00.410Z,0.0
2022-08-25T20:05:00.306Z,0.0
2022-08-25T20:10:00.322Z,0.0
2022-08-25T20:15:00.264Z,0.0
2022-08-25T20:20:00.442Z,0.0
2022-08-25T20:25:00.257Z,0.0
2022-08-25T20:30:03.308Z,0.0
2022-08-25T20:35:00.306Z,0.0
2022-08-25T20:40:00.646Z,0.0
2022-08-25T20:45:01.034Z,1.6
2022-08-25T20:50:06.850Z,2.5
2022-08-25T20:55:00.504Z,1.6
2022-08-25T21:00:01.210Z,0.8
2022-08-25T21:05:00.277Z,1.3
2022-08-25T21:10:01.702Z,0.2
2022-08-25T21:15:00.898Z,0.1
2022-08-25T21:20:01.112Z,2.8
2022-08-25T21:25:00.701Z,2.7
2022-08-25T21:30:00.411Z,2.0
2022-08-25T21:35:01.343Z,0.3
2022-08-25T21:40:00.533Z,1.6
2022-08-25T21:45:02.793Z,1.2
2022-08-25T21:50:00.318Z,3.2
2022-08-25T21:55:00.313Z,2.5
2022-08-25T22:00:00.722Z,2.1
2022-08-25T22:05:00.266Z,1.6
2022-08-25T22:10:00.318Z,1.6
2022-08-25T22:15:00.426Z,1.9
2022-08-25T22:20:00.326Z,2.4
2022-08-25T22:25:00.641Z,1.9
2022-08-25T22:30:00.371Z,2.4
2022-08-25T22:35:00.305Z,2.7
2022-08-25T22:40:01.808Z,2.6
2022-08-25T22:45:00.353Z,2.0
2022-08-25T22:50:01.745Z,1.2
2022-08-25T22:55:00.257Z,2.3
2022-08-25T23:00:00.382Z,2.5
2022-08-25T23:05:01.242Z,2.8
2022-08-25T23:10:00.825Z,1.4
2022-08-25T23:15:00.260Z,0.3
2022-08-25T23:20:00.790Z,1.2
2022-08-25T23:25:03.439Z,1.8
2022-08-25T23:30:00.369Z,1.5
2022-08-25T23:35:00.877Z,0.2
2022-08-25T23:40:00.518Z,0.7
2022-08-25T23:45:02.498Z,1.5
2022-08-25T23:50:00.319Z,2.3
2022-08-25T23:55:00.286Z,2.2
